createdAt,value
2019-05-02T00:01:46.525Z,32.03
2019-05-02T00:03:51.908Z,30.80
2019-05-02T00:05:57.173Z,30.83
2019-05-02T00:08:02.459Z,30.57
2019-05-02T00:10:10.339Z,30.57
2019-05-02T00:12:18.859Z,31.17
2019-05-02T00:14:23.816Z,34.27
2019-05-02T00:16:29.802Z,32.63
2019-05-02T00:18:37.334Z,32.87
2019-05-02T00:20:42.825Z,31.73
2019-05-02T00:22:51.972Z,31.33
2019-05-02T00:24:54.858Z,30.30
2019-05-02T00:27:01.283Z,31.30
2019-05-02T00:29:06.612Z,32.53
2019-05-02T00:31:12.857Z,29.97
2019-05-02T00:33:18.280Z,32.33
2019-05-02T00:35:23.532Z,31.03
2019-05-02T00:37:29.025Z,30.70
2019-05-02T00:39:34.114Z,33.33
2019-05-02T00:41:40.501Z,33.30
2019-05-02T00:43:45.947Z,32.90
2019-05-02T00:45:54.984Z,34.30
2019-05-02T00:48:04.119Z,33.67
2019-05-02T00:50:11.204Z,35.63
2019-05-02T00:52:16.398Z,32.97
2019-05-02T00:54:24.272Z,33.80
2019-05-02T00:56:28.650Z,34.47
2019-05-02T00:58:33.816Z,37.20
2019-05-02T01:00:56.765Z,34.20
2019-05-02T01:03:03.639Z,32.57
2019-05-02T01:05:08.976Z,31.87
2019-05-02T01:07:14.437Z,32.97
2019-05-02T01:09:19.578Z,29.70
2019-05-02T01:11:28.257Z,31.70
2019-05-02T01:13:31.440Z,32.60
2019-05-02T01:15:38.969Z,32.97
2019-05-02T01:17:43.775Z,31.93
2019-05-02T01:19:51.435Z,33.07
2019-05-02T01:21:55.514Z,31.50
2019-05-02T01:24:03.109Z,33.37
2019-05-02T01:26:09.433Z,32.73
2019-05-02T01:28:25.316Z,32.20
2019-05-02T01:30:42.476Z,32.17
2019-05-02T01:33:12.219Z,31.20
2019-05-02T01:35:27.002Z,30.97
2019-05-02T01:37:50.960Z,34.38
2019-05-02T01:39:57.083Z,31.93
2019-05-02T01:42:04.236Z,32.60
2019-05-02T01:44:09.181Z,30.70
2019-05-02T01:46:16.933Z,31.47
2019-05-02T01:48:21.439Z,30.60
2019-05-02T01:50:28.874Z,30.43
2019-05-02T01:52:33.786Z,32.90
2019-05-02T01:54:40.797Z,33.23
2019-05-02T01:56:46.129Z,31.23
2019-05-02T01:58:52.966Z,32.13
2019-05-02T02:00:58.627Z,34.10
2019-05-02T02:03:04.266Z,33.17
2019-05-02T02:05:10.988Z,33.27
2019-05-02T02:07:20.071Z,33.13
2019-05-02T02:09:22.933Z,33.87
2019-05-02T02:11:28.338Z,35.17
2019-05-02T02:13:36.532Z,33.20
2019-05-02T02:15:41.347Z,31.60
2019-05-02T02:17:46.835Z,31.77
2019-05-02T02:19:57.210Z,30.80
2019-05-02T02:22:24.052Z,32.70
2019-05-02T02:24:33.761Z,31.53
2019-05-02T02:26:38.931Z,32.13
2019-05-02T02:28:44.180Z,34.30
2019-05-02T02:30:49.616Z,32.77
2019-05-02T02:33:00.706Z,31.90
2019-05-02T02:35:03.529Z,35.07
2019-05-02T02:37:13.235Z,33.10
2019-05-02T02:39:17.141Z,33.80
2019-05-02T02:41:21.968Z,33.70
2019-05-02T02:43:34.085Z,34.40
2019-05-02T02:45:57.614Z,33.03
2019-05-02T02:48:02.556Z,34.17
2019-05-02T02:50:08.019Z,33.60
2019-05-02T02:52:13.311Z,33.03
2019-05-02T02:54:18.535Z,33.50
2019-05-02T02:56:23.509Z,34.43
2019-05-02T02:58:28.621Z,33.93
2019-05-02T03:00:34.105Z,35.10
2019-05-02T03:02:47.809Z,35.60
2019-05-02T03:04:47.260Z,34.67
2019-05-02T03:06:52.316Z,35.07
2019-05-02T03:08:57.416Z,34.77
2019-05-02T03:11:02.600Z,36.37
2019-05-02T03:13:25.633Z,34.43
2019-05-02T03:15:33.226Z,37.67
2019-05-02T03:17:38.366Z,37.80
2019-05-02T03:19:43.594Z,35.80
2019-05-02T03:22:00.825Z,36.75
2019-05-02T03:24:03.020Z,36.43
2019-05-02T03:26:15.068Z,37.37
2019-05-02T03:28:18.594Z,37.97
2019-05-02T03:30:33.123Z,37.60
2019-05-02T03:32:34.180Z,37.33
2019-05-02T03:34:47.404Z,37.83
2019-05-02T03:36:43.318Z,36.60
2019-05-02T03:38:48.457Z,37.10
2019-05-02T03:40:54.572Z,36.30
2019-05-02T03:43:25.658Z,38.17
2019-05-02T03:45:39.300Z,37.30
2019-05-02T03:47:43.477Z,38.70
2019-05-02T03:49:48.904Z,37.53
2019-05-02T03:51:56.213Z,38.30
2019-05-02T03:54:07.508Z,37.43
2019-05-02T03:56:11.650Z,36.17
2019-05-02T03:58:16.285Z,35.37
2019-05-02T04:00:23.769Z,38.63
2019-05-02T04:02:28.132Z,38.00
2019-05-02T04:04:33.468Z,37.27
2019-05-02T04:06:39.138Z,37.47
2019-05-02T04:08:44.473Z,36.53
2019-05-02T04:11:39.108Z,35.70
2019-05-02T04:13:41.019Z,37.03
2019-05-02T04:15:46.826Z,37.47
2019-05-02T04:17:53.178Z,38.13
2019-05-02T04:19:58.489Z,38.03
2019-05-02T04:22:08.618Z,38.47
2019-05-02T04:24:15.609Z,37.37
2019-05-02T04:26:18.400Z,39.50
2019-05-02T04:28:24.657Z,39.13
2019-05-02T04:30:30.011Z,38.80
2019-05-02T04:32:35.593Z,39.00
2019-05-02T04:34:40.692Z,38.70
2019-05-02T04:37:00.912Z,39.50
2019-05-02T04:39:05.899Z,37.73
2019-05-02T04:41:09.549Z,37.70
2019-05-02T04:43:14.231Z,38.83
2019-05-02T04:45:28.207Z,38.53
2019-05-02T04:47:28.999Z,38.40
2019-05-02T04:49:35.680Z,41.20
2019-05-02T04:51:39.566Z,38.20
2019-05-02T04:53:45.643Z,39.07
2019-05-02T04:56:01.542Z,40.00
2019-05-02T04:57:58.877Z,39.77
2019-05-02T05:00:10.466Z,41.53
2019-05-02T05:02:12.512Z,40.05
2019-05-02T05:04:18.022Z,41.67
2019-05-02T05:06:23.192Z,41.40
2019-05-02T05:08:31.798Z,44.27
2019-05-02T05:10:41.366Z,42.40
2019-05-02T05:12:43.800Z,40.67
2019-05-02T05:14:51.593Z,41.17
2019-05-02T05:16:58.033Z,43.40
2019-05-02T05:19:03.367Z,41.50
2019-05-02T05:21:10.684Z,44.20
2019-05-02T05:23:21.502Z,41.70
2019-05-02T05:25:32.574Z,42.03
2019-05-02T05:27:37.781Z,40.90
2019-05-02T05:29:45.905Z,41.70
2019-05-02T05:31:49.641Z,44.00
2019-05-02T05:33:54.811Z,44.23
2019-05-02T05:36:00.115Z,43.43
2019-05-02T05:38:05.259Z,41.83
2019-05-02T05:40:10.299Z,42.80
2019-05-02T05:42:17.868Z,43.03
2019-05-02T05:44:23.197Z,42.67
2019-05-02T05:46:33.491Z,40.93
2019-05-02T05:48:39.163Z,42.10
2019-05-02T05:50:42.950Z,41.30
2019-05-02T05:52:51.741Z,42.40
2019-05-02T05:54:57.906Z,41.20
2019-05-02T05:57:04.119Z,42.67
2019-05-02T05:59:09.077Z,41.90
2019-05-02T06:01:14.047Z,42.40
2019-05-02T06:03:19.235Z,40.77
2019-05-02T06:05:24.287Z,45.23
2019-05-02T06:07:33.059Z,42.97
2019-05-02T06:09:36.500Z,42.40
2019-05-02T06:11:42.411Z,48.10
2019-05-02T06:13:48.935Z,45.30
2019-05-02T06:16:01.980Z,41.70
2019-05-02T06:18:04.710Z,42.27
2019-05-02T06:20:08.221Z,44.47
2019-05-02T06:22:16.531Z,40.63
2019-05-02T06:24:20.404Z,41.77
2019-05-02T06:26:25.554Z,42.67
2019-05-02T06:28:30.846Z,39.90
2019-05-02T06:30:35.994Z,38.43
2019-05-02T06:32:41.130Z,39.73
2019-05-02T06:34:47.532Z,40.80
2019-05-02T06:36:52.855Z,40.67
2019-05-02T06:38:57.921Z,41.37
2019-05-02T06:41:03.118Z,39.43
2019-05-02T06:43:09.681Z,41.75
2019-05-02T06:45:15.406Z,38.17
2019-05-02T06:47:20.607Z,38.30
2019-05-02T06:49:26.061Z,37.60
2019-05-02T06:51:31.102Z,39.47
2019-05-02T06:53:41.182Z,39.63
2019-05-02T06:55:43.397Z,38.60
2019-05-02T06:57:51.474Z,39.50
2019-05-02T06:59:56.501Z,40.17
2019-05-02T07:02:01.682Z,39.53
2019-05-02T07:04:06.886Z,37.20
2019-05-02T07:06:12.022Z,38.17
2019-05-02T07:08:17.105Z,38.20
2019-05-02T07:10:25.425Z,37.57
2019-05-02T07:12:29.242Z,40.13
2019-05-02T07:14:34.606Z,38.90
2019-05-02T07:16:49.710Z,38.60
2019-05-02T07:19:00.206Z,36.33
2019-05-02T07:21:05.983Z,37.67
2019-05-02T07:23:16.098Z,37.90
2019-05-02T07:25:18.584Z,38.50
2019-05-02T07:27:28.108Z,41.27
2019-05-02T07:29:30.396Z,41.37
2019-05-02T07:31:35.668Z,39.37
2019-05-02T07:33:40.949Z,42.23
2019-05-02T07:35:45.997Z,41.90
2019-05-02T07:37:51.079Z,40.00
2019-05-02T07:39:56.689Z,42.53
2019-05-02T07:42:05.809Z,42.13
2019-05-02T07:44:08.667Z,41.00
2019-05-02T07:46:16.293Z,43.07
2019-05-02T07:48:20.579Z,48.35
2019-05-02T07:50:25.704Z,43.37
2019-05-02T07:52:33.624Z,43.60
2019-05-02T07:54:37.964Z,42.07
2019-05-02T07:56:43.053Z,41.27
2019-05-02T07:58:48.244Z,42.27
2019-05-02T08:00:53.654Z,45.03
2019-05-02T08:02:59.437Z,39.50
2019-05-02T08:05:04.942Z,40.80
2019-05-02T08:07:10.170Z,39.43
2019-05-02T08:09:15.344Z,45.48
2019-05-02T08:11:20.445Z,43.87
2019-05-02T08:13:25.667Z,42.83
2019-05-02T08:15:30.743Z,38.70
2019-05-02T08:17:35.830Z,38.57
2019-05-02T08:19:41.944Z,42.87
2019-05-02T08:21:48.119Z,40.20
2019-05-02T08:23:57.109Z,39.07
2019-05-02T08:25:59.914Z,38.73
2019-05-02T08:28:15.919Z,39.00
2019-05-02T08:30:25.379Z,38.00
2019-05-02T08:32:30.363Z,38.63
2019-05-02T08:34:35.845Z,36.90
2019-05-02T08:36:41.066Z,36.67
2019-05-02T08:38:48.946Z,37.90
2019-05-02T08:40:53.293Z,38.83
2019-05-02T08:42:58.476Z,38.07
2019-05-02T08:45:03.517Z,37.37
2019-05-02T08:47:18.633Z,38.60
2019-05-02T08:49:18.843Z,38.23
2019-05-02T08:51:22.558Z,41.80
2019-05-02T08:53:28.110Z,37.20
2019-05-02T08:55:33.062Z,38.80
2019-05-02T08:57:38.678Z,40.53
2019-05-02T08:59:43.567Z,41.83
2019-05-02T09:01:49.345Z,44.55
2019-05-02T09:03:57.019Z,39.40
2019-05-02T09:06:05.931Z,37.90
2019-05-02T09:08:14.164Z,39.87
2019-05-02T09:10:16.635Z,39.47
2019-05-02T09:12:22.940Z,39.77
2019-05-02T09:14:28.040Z,41.67
2019-05-02T09:16:33.229Z,42.80
2019-05-02T09:18:46.558Z,39.50
2019-05-02T09:20:56.754Z,38.43
2019-05-02T09:23:12.912Z,40.37
2019-05-02T09:25:28.639Z,39.47
2019-05-02T09:27:34.391Z,36.27
2019-05-02T09:29:45.747Z,36.70
2019-05-02T09:31:58.060Z,37.10
2019-05-02T09:34:03.372Z,37.23
2019-05-02T09:36:08.835Z,36.87
2019-05-02T09:38:16.309Z,39.00
2019-05-02T09:40:22.251Z,37.00
2019-05-02T09:42:27.852Z,35.27
2019-05-02T09:44:33.268Z,37.83
2019-05-02T09:46:38.332Z,34.53
2019-05-02T09:48:43.678Z,37.20
2019-05-02T09:50:48.782Z,37.67
2019-05-02T09:52:54.296Z,37.23
2019-05-02T09:54:59.297Z,35.27
2019-05-02T09:57:04.522Z,35.00
2019-05-02T09:59:24.384Z,33.87
2019-05-02T10:01:25.650Z,35.10
2019-05-02T10:03:31.884Z,38.07
2019-05-02T10:05:37.491Z,35.53
2019-05-02T10:07:42.628Z,31.33
2019-05-02T10:09:47.786Z,31.93
2019-05-02T10:11:52.939Z,34.50
2019-05-02T10:13:57.707Z,35.35
2019-05-02T10:16:02.455Z,35.93
2019-05-02T10:18:11.211Z,33.10
2019-05-02T10:20:14.804Z,30.23
2019-05-02T10:22:19.926Z,32.23
2019-05-02T10:24:24.871Z,32.70
2019-05-02T10:26:32.843Z,31.80
2019-05-02T10:28:41.741Z,35.63
2019-05-02T10:30:47.361Z,33.93
2019-05-02T10:32:52.893Z,34.70
2019-05-02T10:34:57.965Z,36.03
2019-05-02T10:37:03.222Z,33.20
2019-05-02T10:39:08.995Z,33.70
2019-05-02T10:41:14.335Z,30.83
2019-05-02T10:43:19.196Z,33.07
2019-05-02T10:45:24.186Z,34.90
2019-05-02T10:47:29.959Z,33.03
2019-05-02T10:49:42.602Z,37.00
2019-05-02T10:51:49.484Z,32.83
2019-05-02T10:53:56.523Z,30.13
2019-05-02T10:56:02.688Z,30.73
2019-05-02T10:58:07.804Z,26.67
2019-05-02T11:00:16.624Z,25.33
2019-05-02T11:02:46.778Z,24.70
2019-05-02T11:04:55.235Z,21.53
2019-05-02T11:07:02.482Z,24.13
2019-05-02T11:09:12.083Z,23.80
2019-05-02T11:11:17.389Z,24.60
2019-05-02T11:13:58.584Z,22.37
2019-05-02T11:16:21.541Z,22.13
2019-05-02T11:18:40.228Z,20.47
2019-05-02T11:20:35.962Z,20.00
2019-05-02T11:22:42.657Z,22.90
2019-05-02T11:24:47.904Z,23.53
2019-05-02T11:26:53.055Z,22.63
2019-05-02T11:28:58.204Z,20.57
2019-05-02T11:31:06.517Z,24.63
2019-05-02T11:33:13.168Z,22.07
2019-05-02T11:35:17.194Z,21.83
2019-05-02T11:37:22.671Z,23.80
2019-05-02T11:39:34.612Z,23.57
2019-05-02T11:41:34.608Z,20.87
2019-05-02T11:43:42.372Z,20.87
2019-05-02T11:45:46.501Z,22.07
2019-05-02T11:47:54.454Z,24.60
2019-05-02T11:49:58.740Z,21.93
2019-05-02T11:52:04.745Z,21.43
2019-05-02T11:54:09.931Z,23.70
2019-05-02T11:56:15.456Z,25.47
2019-05-02T11:58:22.881Z,24.10
2019-05-02T12:00:27.770Z,21.20
2019-05-02T12:02:58.361Z,22.47
2019-05-02T12:05:03.890Z,23.07
2019-05-02T12:07:09.670Z,23.27
2019-05-02T12:09:15.871Z,23.30
2019-05-02T12:11:22.872Z,26.40
2019-05-02T12:13:28.351Z,25.67
2019-05-02T12:15:33.885Z,26.37
2019-05-02T12:17:38.923Z,26.60
2019-05-02T12:19:43.916Z,25.60
2019-05-02T12:21:55.207Z,25.97
2019-05-02T12:24:01.712Z,28.37
2019-05-02T12:26:07.448Z,25.70
2019-05-02T12:28:12.715Z,27.93
2019-05-02T12:30:17.873Z,27.50
2019-05-02T12:32:23.464Z,28.97
2019-05-02T12:34:28.505Z,27.60
2019-05-02T12:36:33.896Z,29.33
2019-05-02T12:38:39.087Z,28.70
2019-05-02T12:40:44.301Z,25.67
2019-05-02T12:42:49.486Z,27.00
2019-05-02T12:44:54.688Z,27.57
2019-05-02T12:46:59.738Z,27.27
2019-05-02T12:49:05.000Z,26.97
2019-05-02T12:51:10.473Z,27.53
2019-05-02T12:53:15.926Z,28.00
2019-05-02T12:55:22.163Z,29.07
2019-05-02T12:57:27.432Z,30.50
2019-05-02T12:59:32.461Z,30.70
2019-05-02T13:01:37.448Z,30.30
2019-05-02T13:04:12.471Z,31.93
2019-05-02T13:06:17.686Z,34.80
2019-05-02T13:08:25.159Z,37.60
2019-05-02T13:10:37.857Z,36.30
2019-05-02T13:12:43.267Z,42.13
2019-05-02T13:14:48.612Z,38.87
2019-05-02T13:17:01.451Z,41.93
2019-05-02T13:19:02.861Z,45.20
2019-05-02T13:21:15.065Z,43.20
2019-05-02T13:23:37.151Z,40.43
2019-05-02T13:25:42.368Z,45.27
2019-05-02T13:27:48.333Z,45.03
2019-05-02T13:29:53.987Z,46.17
2019-05-02T13:32:18.713Z,45.90
2019-05-02T13:34:33.417Z,43.27
2019-05-02T13:36:47.414Z,48.63
2019-05-02T13:38:56.122Z,45.00
2019-05-02T13:41:02.566Z,47.37
2019-05-02T13:43:07.979Z,49.93
2019-05-02T13:45:32.572Z,47.90
2019-05-02T13:47:37.625Z,47.90
2019-05-02T13:49:53.543Z,43.60
2019-05-02T13:51:52.099Z,47.03
2019-05-02T13:54:02.384Z,42.47
2019-05-02T13:56:25.272Z,43.87
2019-05-02T13:58:33.050Z,41.53
2019-05-02T14:00:44.582Z,42.80
2019-05-02T14:02:51.881Z,43.53
2019-05-02T14:04:56.575Z,44.03
2019-05-02T14:07:03.109Z,50.25
2019-05-02T14:09:43.884Z,44.60
2019-05-02T14:11:56.070Z,44.87
2019-05-02T14:14:01.912Z,46.43
2019-05-02T14:16:07.579Z,41.23
2019-05-02T14:18:12.745Z,42.03
2019-05-02T14:20:22.362Z,45.63
2019-05-02T14:22:32.397Z,39.50
2019-05-02T14:24:37.269Z,44.30
2019-05-02T14:26:43.402Z,42.20
2019-05-02T14:28:48.460Z,42.40
2019-05-02T14:30:54.847Z,42.33
2019-05-02T14:33:03.676Z,39.60
2019-05-02T14:35:18.584Z,42.57
2019-05-02T14:37:24.869Z,38.47
2019-05-02T14:39:32.357Z,40.70
2019-05-02T14:41:40.994Z,43.60
2019-05-02T14:44:09.424Z,38.57
2019-05-02T14:46:17.620Z,40.33
2019-05-02T14:48:24.194Z,38.13
2019-05-02T14:50:29.200Z,38.80
2019-05-02T14:52:37.215Z,39.38
2019-05-02T14:54:43.805Z,36.33
2019-05-02T14:56:55.402Z,34.50
2019-05-02T14:59:02.505Z,35.10
2019-05-02T15:01:07.698Z,35.57
2019-05-02T15:03:12.953Z,33.30
2019-05-02T15:05:19.366Z,35.73
2019-05-02T15:07:26.701Z,36.40
2019-05-02T15:09:33.388Z,26.50
2019-05-02T15:11:58.757Z,22.37
2019-05-02T15:14:04.207Z,21.70
2019-05-02T15:16:10.425Z,22.20
2019-05-02T15:18:17.500Z,21.40
2019-05-02T15:20:23.556Z,20.70
2019-05-02T15:22:33.156Z,18.63
2019-05-02T15:24:37.935Z,20.50
2019-05-02T15:26:42.927Z,21.83
2019-05-02T15:28:48.560Z,22.63
2019-05-02T15:31:12.991Z,25.40
2019-05-02T15:33:22.317Z,25.37
2019-05-02T15:35:45.051Z,25.90
2019-05-02T15:37:51.798Z,27.03
2019-05-02T15:42:03.888Z,23.30
2019-05-02T15:44:09.343Z,25.50
2019-05-02T15:46:15.665Z,25.47
2019-05-02T15:48:27.059Z,25.07
2019-05-02T15:50:28.160Z,28.90
2019-05-02T15:52:35.122Z,27.10
2019-05-02T15:54:42.514Z,25.97
2019-05-02T15:57:00.659Z,25.40
2019-05-02T15:59:03.488Z,23.33
2019-05-02T16:01:29.536Z,23.17
2019-05-02T16:03:46.276Z,23.87
2019-05-02T16:05:52.475Z,23.70
2019-05-02T16:08:05.415Z,24.87
2019-05-02T16:10:05.621Z,22.30
2019-05-02T16:12:12.252Z,26.17
2019-05-02T16:14:17.997Z,28.63
2019-05-02T16:16:23.104Z,28.87
2019-05-02T16:18:31.698Z,28.27
2019-05-02T16:21:06.958Z,27.50
2019-05-02T16:23:05.552Z,28.47
2019-05-02T16:25:12.229Z,30.57
2019-05-02T16:27:23.782Z,29.83
2019-05-02T16:29:28.182Z,45.40
2019-05-02T16:31:32.751Z,31.63
2019-05-02T16:33:37.854Z,30.67
2019-05-02T16:35:46.356Z,30.13
2019-05-02T16:37:54.092Z,28.50
2019-05-02T16:39:57.534Z,29.30
2019-05-02T16:42:04.756Z,29.33
2019-05-02T16:44:10.339Z,30.10
2019-05-02T16:46:15.708Z,27.67
2019-05-02T16:48:23.600Z,27.83
2019-05-02T16:50:31.915Z,29.03
2019-05-02T16:52:38.186Z,27.43
2019-05-02T16:54:43.488Z,29.75
2019-05-02T16:56:48.348Z,24.67
2019-05-02T16:58:53.636Z,25.53
2019-05-02T17:00:59.039Z,25.30
2019-05-02T17:03:04.793Z,23.70
2019-05-02T17:05:12.067Z,22.03
2019-05-02T17:07:22.218Z,20.50
2019-05-02T17:09:38.819Z,20.17
2019-05-02T17:11:44.242Z,20.73
2019-05-02T17:13:49.423Z,19.67
2019-05-02T17:15:55.637Z,19.30
2019-05-02T17:18:04.918Z,18.67
2019-05-02T17:20:13.006Z,19.27
2019-05-02T17:22:16.733Z,18.10
2019-05-02T17:24:26.176Z,18.20
2019-05-02T17:26:31.772Z,20.87
2019-05-02T17:28:37.922Z,18.17
2019-05-02T17:30:43.931Z,17.50
2019-05-02T17:32:49.110Z,18.13
2019-05-02T17:34:54.903Z,15.93
2019-05-02T17:37:06.322Z,16.40
2019-05-02T17:39:09.385Z,16.50
2019-05-02T17:41:15.386Z,16.57
2019-05-02T17:43:22.519Z,16.70
2019-05-02T17:45:27.588Z,17.33
2019-05-02T17:47:36.050Z,17.33
2019-05-02T17:49:39.641Z,17.50
2019-05-02T17:52:26.024Z,16.87
2019-05-02T17:54:26.317Z,17.50
2019-05-02T17:56:32.586Z,16.00
2019-05-02T17:58:39.728Z,16.20
2019-05-02T18:00:47.535Z,15.20
2019-05-02T18:02:53.821Z,15.30
2019-05-02T18:04:58.942Z,16.30
2019-05-02T18:07:04.076Z,16.37
2019-05-02T18:09:12.238Z,16.97
2019-05-02T18:11:17.962Z,16.27
2019-05-02T18:13:23.194Z,17.00
2019-05-02T18:15:29.887Z,15.80
2019-05-02T18:17:36.018Z,16.33
2019-05-02T18:19:42.573Z,15.27
2019-05-02T18:21:47.623Z,15.43
2019-05-02T18:23:57.170Z,15.80
2019-05-02T18:26:04.485Z,13.97
2019-05-02T18:28:07.336Z,14.60
2019-05-02T18:30:22.833Z,15.00
2019-05-02T18:32:26.188Z,15.40
2019-05-02T18:34:31.373Z,16.40
2019-05-02T18:36:36.891Z,17.40
2019-05-02T18:38:42.297Z,15.40
2019-05-02T18:40:48.251Z,16.23
2019-05-02T18:42:56.542Z,16.40
2019-05-02T18:45:02.091Z,16.20
2019-05-02T18:47:11.936Z,17.10
2019-05-02T18:49:17.116Z,15.30
2019-05-02T18:51:22.855Z,16.47
2019-05-02T18:53:28.242Z,16.67
2019-05-02T18:55:33.715Z,17.33
2019-05-02T18:57:39.220Z,16.10
2019-05-02T18:59:44.605Z,16.60
2019-05-02T19:01:52.687Z,17.80
2019-05-02T19:03:56.995Z,17.57
2019-05-02T19:06:02.339Z,16.20
2019-05-02T19:08:08.089Z,16.80
2019-05-02T19:10:15.112Z,17.40
2019-05-02T19:12:25.741Z,16.77
2019-05-02T19:14:29.936Z,17.83
2019-05-02T19:16:47.991Z,18.23
2019-05-02T19:18:57.394Z,17.50
2019-05-02T19:21:07.392Z,16.10
2019-05-02T19:23:13.618Z,14.97
2019-05-02T19:25:20.278Z,14.93
2019-05-02T19:27:47.434Z,12.60
2019-05-02T19:29:54.763Z,13.33
2019-05-02T19:32:02.119Z,12.63
2019-05-02T19:34:08.990Z,11.87
2019-05-02T19:36:16.344Z,9.80
2019-05-02T19:38:22.611Z,9.90
2019-05-02T19:40:28.595Z,9.40
2019-05-02T19:42:33.958Z,8.60
2019-05-02T19:44:42.057Z,8.30
2019-05-02T19:46:52.085Z,8.10
2019-05-02T19:48:59.233Z,7.27
2019-05-02T19:51:05.367Z,7.47
2019-05-02T19:53:17.725Z,6.70
2019-05-02T19:55:19.924Z,7.30
2019-05-02T19:57:26.366Z,6.33
2019-05-02T19:59:32.135Z,6.40
2019-05-02T20:01:37.473Z,6.80
2019-05-02T20:03:43.375Z,6.47
2019-05-02T20:05:48.954Z,6.50
2019-05-02T20:07:54.265Z,5.80
2019-05-02T20:10:01.824Z,6.07
2019-05-02T20:12:10.585Z,5.50
2019-05-02T20:14:14.007Z,6.30
2019-05-02T20:16:28.720Z,5.97
2019-05-02T20:18:42.546Z,5.83
2019-05-02T20:20:52.037Z,6.07
2019-05-02T20:22:57.739Z,5.77
2019-05-02T20:25:03.748Z,5.60
2019-05-02T20:27:09.053Z,5.53
2019-05-02T20:29:14.221Z,5.13
2019-05-02T20:31:21.565Z,4.80
2019-05-02T20:33:26.175Z,4.70
2019-05-02T20:35:31.968Z,4.70
2019-05-02T20:37:37.335Z,5.03
2019-05-02T20:39:42.764Z,5.20
2019-05-02T20:41:48.207Z,4.17
2019-05-02T20:43:53.671Z,4.50
2019-05-02T20:45:59.507Z,3.80
2019-05-02T20:48:04.935Z,5.03
2019-05-02T20:50:12.063Z,4.63
2019-05-02T20:52:19.001Z,5.08
2019-05-02T20:54:25.597Z,4.77
2019-05-02T20:56:32.104Z,4.70
2019-05-02T20:58:37.633Z,5.30
2019-05-02T21:00:43.122Z,5.00
2019-05-02T21:02:48.603Z,4.30
2019-05-02T21:04:53.696Z,5.23
2019-05-02T21:07:30.203Z,4.43
2019-05-02T21:09:54.484Z,4.57
2019-05-02T21:12:02.335Z,4.23
2019-05-02T21:14:07.497Z,5.00
2019-05-02T21:16:14.125Z,4.20
2019-05-02T21:18:19.098Z,3.83
2019-05-02T21:20:24.457Z,4.30
2019-05-02T21:22:32.759Z,4.27
2019-05-02T21:24:37.891Z,4.10
2019-05-02T21:26:43.173Z,4.67
2019-05-02T21:28:48.365Z,5.00
2019-05-02T21:31:12.630Z,5.13
2019-05-02T21:33:36.204Z,4.90
2019-05-02T21:35:42.435Z,4.90
2019-05-02T21:37:47.558Z,4.50
2019-05-02T21:39:52.645Z,4.53
2019-05-02T21:41:57.823Z,4.60
2019-05-02T21:44:02.886Z,4.97
2019-05-02T21:46:08.051Z,4.60
2019-05-02T21:48:13.239Z,4.80
2019-05-02T21:50:40.536Z,4.77
2019-05-02T21:53:07.377Z,5.13
2019-05-02T21:55:34.426Z,4.73
2019-05-02T21:57:39.458Z,5.20
2019-05-02T21:59:44.589Z,5.43
2019-05-02T22:01:55.294Z,5.80
2019-05-02T22:04:02.107Z,5.13
2019-05-02T22:06:07.343Z,4.77
2019-05-02T22:08:12.798Z,5.10
2019-05-02T22:10:18.068Z,5.00
2019-05-02T22:12:23.179Z,5.70
2019-05-02T22:14:28.371Z,5.00
2019-05-02T22:16:34.163Z,5.10
2019-05-02T22:18:39.264Z,5.70
2019-05-02T22:20:44.391Z,5.63
2019-05-02T22:22:51.929Z,5.40
2019-05-02T22:24:56.306Z,5.30
2019-05-02T22:27:01.931Z,6.00
2019-05-02T22:29:07.212Z,4.90
2019-05-02T22:31:12.990Z,5.97
2019-05-02T22:33:18.202Z,5.43
2019-05-02T22:35:23.269Z,4.80
2019-05-02T22:37:28.421Z,5.50
2019-05-02T22:39:48.266Z,5.30
2019-05-02T22:41:53.336Z,6.00
2019-05-02T22:44:01.719Z,5.70
2019-05-02T22:46:08.771Z,6.03
2019-05-02T22:48:14.325Z,5.50
2019-05-02T22:50:19.533Z,5.67
2019-05-02T22:52:24.541Z,5.87
2019-05-02T22:54:31.549Z,5.80
2019-05-02T22:56:36.794Z,5.53
2019-05-02T22:58:42.272Z,6.00
2019-05-02T23:00:47.490Z,5.67
2019-05-02T23:02:52.586Z,6.40
2019-05-02T23:04:58.099Z,6.10
2019-05-02T23:07:03.295Z,6.33
2019-05-02T23:09:09.122Z,6.50
2019-05-02T23:11:14.446Z,6.90
2019-05-02T23:13:19.540Z,6.73
2019-05-02T23:15:25.015Z,5.60
2019-05-02T23:17:32.036Z,5.90
2019-05-02T23:19:37.434Z,6.40
2019-05-02T23:21:42.927Z,6.83
2019-05-02T23:23:48.274Z,6.00
2019-05-02T23:26:12.715Z,6.40
2019-05-02T23:28:22.179Z,7.10
2019-05-02T23:30:27.064Z,6.77
2019-05-02T23:32:32.332Z,6.53
2019-05-02T23:34:37.517Z,6.90
2019-05-02T23:36:42.565Z,6.70
2019-05-02T23:38:48.701Z,6.30
2019-05-02T23:40:54.004Z,7.30
2019-05-02T23:42:59.611Z,6.40
2019-05-02T23:45:05.205Z,6.53
2019-05-02T23:47:11.707Z,6.67
2019-05-02T23:49:16.954Z,7.00
2019-05-02T23:51:22.598Z,7.57
2019-05-02T23:53:27.706Z,6.87
2019-05-02T23:55:33.308Z,6.37
2019-05-02T23:57:38.494Z,6.77
2019-05-02T23:59:43.683Z,6.40
